Station CDXA2 - Cape Decision MXAK, AK Image indicating link to RSS feed of recent meteorological observations for station CDXA2


Conditions at CDXA2 as of
(3:02 am AKDT)
1102 GMT on 07/21/2024:
     

Click on the graph icon in the table below to see a time series plot of the last five days of that observation.

5-day plot - Wind Direction Wind Direction (WDIR): E ( 80 deg true )
5-day plot - Wind Speed Wind Speed (WSPD): 2 kts
5-day plot - Wind Gust Wind Gust (GST): 4 kts
5-day plot - Air Temperature Air Temperature (ATMP): 53.4 °F
5-day plot - Dew Point Dew Point (DEWP): 51.8 °F
5-day plot - Wind Speed at 10 Meters Wind Speed at 10 meters (WSPD10M): 2 kts
5-day plot - Wind Speed at 20 Meters Wind Speed at 20 meters (WSPD20M): 2 kts
5-day plot -  Wind Speed, Wind Gust and Atmospheric Pressure Combined plot of Wind Speed, Gust, and Air Pressure
Previous observations
TIME
(AKDT)
5-day plot - Wind Direction
WDIR
 
5-day plot - Wind Speed
WSPD
kts
5-day plot - Wind Gust
GST
kts
5-day plot - Wave Height
WVHT
ft
5-day plot - Dominant Wave Period
DPD
sec
5-day plot - Average Wave Period
APD
sec
5-day plot - Mean Wave Direction
MWD
 
5-day plot - Atmospheric Pressure
PRES
in
5-day plot - Pressure Tendency
PTDY
in
5-day plot - Air Temperature
ATMP
°F
5-day plot - Water Temperature
WTMP
°F
5-day plot - Dew Point
DEWP
°F
5-day plot - Salinity
SAL
psu
5-day plot - Visibility
VIS
nmi
5-day plot - Tide (above MLLW)
TIDE
ft
2024-07-21 02:52 am E 2 3------ 53.8- 52.2---
2024-07-21 02:42 am SE 2 3------ 54.1- 51.8---
2024-07-21 02:32 amENE 2 3------ 53.8- 51.8---
2024-07-21 02:22 am E 2 3------ 54.0- 52.3---
2024-07-21 02:12 amESE 1 3------ 54.3- 51.4---
2024-07-21 02:02 am E 1 3------ 54.5- 52.0---
2024-07-21 01:52 am NW 2 3------ 54.5- 52.0---
2024-07-21 01:42 amWNW 3 4------ 54.3- 52.3---
2024-07-21 01:32 amWNW 2 3------ 54.5- 52.2---
2024-07-21 01:22 amWNW 3 4------ 54.9- 52.5---
2024-07-21 01:12 amWNW 3 4------ 54.7- 52.7---
2024-07-21 01:02 amWNW 3 4------ 54.7- 52.7---
2024-07-21 12:52 amWNW 3 3------ 54.7- 52.7---
2024-07-21 12:42 amWNW 2 3------ 54.1- 52.7---
2024-07-21 12:32 amWNW 2 3------ 54.0- 52.5---
2024-07-21 12:22 am W 2 3------ 53.8- 52.7---
2024-07-21 12:12 amWNW 2 3------ 53.6- 52.5---
2024-07-21 12:02 am W 2 4------ 53.2- 52.3---
2024-07-20 11:52 pmWSW 2 4------ 53.1- 52.0---
2024-07-20 11:42 pm SW 2 4------ 53.6- 52.5---
2024-07-20 11:32 pmSSW 3 4------ 53.4- 52.3---
2024-07-20 11:22 pmSSW 3 6------ 54.1- 52.5---
2024-07-20 11:12 pm NW 1 2------ 55.6- 53.2---
2024-07-20 11:02 pmNNW 4 6------ 55.8- 53.2---
2024-07-20 10:52 pmNNW 5 7------ 55.0- 53.1---
2024-07-20 10:42 pm NW 4 6------ 53.1- 52.0---
2024-07-20 10:32 pmWNW 3 3------ 53.8- 52.7---
2024-07-20 10:22 pmNNE 1 2------ 54.0- 52.5---
2024-07-20 10:12 pm NW 2 4------ 53.8- 52.3---
2024-07-20 10:02 pm NW 2 4------ 54.0- 52.3---
2024-07-20 09:52 pm- 0 2------ 54.0- 52.0---
2024-07-20 09:42 pm SE 3 5------ 54.3- 51.8---
2024-07-20 09:32 pm SE 3 6------ 54.9- 52.3---
2024-07-20 09:22 pmESE 2 5------ 55.0- 52.7---
2024-07-20 09:12 pm E 4 6------ 55.8- 54.1---
2024-07-20 09:02 pmESE 4 5------ 54.3- 53.4---
2024-07-20 08:52 pm SE 5 7------ 54.5- 53.1---
2024-07-20 08:42 pm E 3 4------ 56.1- 54.5---
2024-07-20 08:32 pmENE 2 3------ 56.7- 53.8---
2024-07-20 08:22 pmNNW 4 7------ 54.5- 53.6---
2024-07-20 08:12 pmNNW 6 8------ 54.5- 53.6---
2024-07-20 08:02 pm NW 6 9------ 54.9- 53.8---
2024-07-20 07:52 pm W 3 8------ 55.2- 53.8---
2024-07-20 07:42 pm SE 2 3------ 55.2- 53.8---
2024-07-20 07:32 pm E 2 4------ 56.7- 54.7---
2024-07-20 07:22 pmNNW 2 3------ 57.4- 55.0---
2024-07-20 07:12 pm NW 3 5------ 57.0- 54.7---
2024-07-20 07:02 pm NW 4 5------ 55.6- 54.0---
2024-07-20 06:52 pmWNW 3 4------ 55.6- 54.0---
2024-07-20 06:42 pm NW 3 4------ 55.8- 54.7---
2024-07-20 06:32 pm NW 4 6------ 55.0- 54.1---
2024-07-20 06:22 pm NW 4 4------ 54.7- 53.8---
2024-07-20 06:12 pmWNW 4 5------ 54.7- 54.1---
2024-07-20 06:02 pmWNW 5 6------ 54.7- 54.1---
2024-07-20 05:52 pmWNW 4 5------ 54.9- 54.0---
2024-07-20 05:42 pm W 4 4------ 55.0- 54.1---
2024-07-20 05:32 pmWSW 3 4------ 55.2- 54.1---
2024-07-20 05:22 pmWSW 4 5------ 55.2- 53.8---
2024-07-20 05:12 pm W 4 5------ 56.1- 53.8---
2024-07-20 05:02 pm NW 6 7------ 56.1- 53.6---
2024-07-20 04:52 pmWNW 6 7------ 56.1- 54.5---
2024-07-20 04:42 pm NW 7 8------ 56.1- 54.7---
2024-07-20 04:32 pm NW 7 8------ 56.3- 54.9---
2024-07-20 04:22 pm NW 7 8------ 56.1- 54.7---
2024-07-20 04:12 pm NW 7 9------ 55.8- 54.9---
2024-07-20 03:52 pm NW 7 8------ 55.8- 55.2---
2024-07-20 03:42 pm NW 8 9------ 55.4- 55.0---
2024-07-20 03:32 pm NW 9 10------ 55.4- 55.4---
2024-07-20 03:22 pmWNW 9 10------ 55.6- 55.6---
2024-07-20 03:12 pmWNW 9 10------ 55.0- 55.0---
2024-07-20 03:02 pmWNW 9 10------ 54.7- 54.7---
2024-07-20 02:52 pmWNW 8 10------ 54.3- 54.3---
2024-07-20 02:42 pmWNW 8 10------ 55.6- 55.6---
2024-07-20 02:32 pmWNW 7 9------ 54.0- 53.6---
2024-07-20 02:22 pm W 6 7------ 53.8- 53.4---
2024-07-20 02:12 pm W 6 8------ 54.0- 53.6---
2024-07-20 02:02 pmWNW 8 10------ 55.9- 55.6---
2024-07-20 01:52 pmWNW 8 10------ 54.1- 53.6---
2024-07-20 01:42 pmWNW 10 13------ 56.5- 55.9---
2024-07-20 01:32 pmWNW 10 11------ 56.7- 56.1---
2024-07-20 01:22 pm NW 11 12------ 56.5- 55.9---
2024-07-20 01:12 pm NW 11 12------ 56.5- 55.9---
2024-07-20 01:02 pm NW 10 12------ 56.5- 55.9---
2024-07-20 12:52 pm NW 8 10------ 56.5- 56.1---
2024-07-20 12:42 pm NW 8 10------ 56.3- 55.9---
2024-07-20 12:32 pm NW 8 10------ 55.9- 55.6---
2024-07-20 12:22 pm NW 8 10------ 56.1- 55.8---
2024-07-20 12:12 pm NW 7 11------ 56.1- 55.8---
2024-07-20 12:02 pm NW 5 8------ 55.9- 55.6---
2024-07-20 11:52 am NW 6 8------ 55.9- 55.6---
2024-07-20 11:42 am NW 5 7------ 55.9- 55.6---
2024-07-20 11:32 am NW 6 11------ 55.9- 55.6---
2024-07-20 11:22 am NW 7 10------ 56.1- 55.8---
2024-07-20 11:12 am NW 6 8------ 56.5- 56.1---
2024-07-20 11:02 am NW 4 5------ 57.0- 56.7---
2024-07-20 10:52 amNNW 5 7------ 56.1- 55.8---
2024-07-20 10:42 am NW 6 9------ 55.6- 55.2---
2024-07-20 10:32 am NW 6 8------ 55.4- 55.0---
2024-07-20 10:22 am NW 5 6------ 55.6- 55.2---
2024-07-20 10:12 amWNW 4 5------ 55.8- 55.2---
2024-07-20 10:02 am NW 2 5------ 57.6- 57.0---
2024-07-20 09:52 am E 2 3------ 57.4- 56.8---
2024-07-20 09:42 amENE 1 2------ 56.8- 56.5---
2024-07-20 09:32 amESE 1 2------ 56.7- 56.3---
2024-07-20 09:22 amWNW 1 4------ 56.3- 55.9---
2024-07-20 09:12 amENE 2 5------ 55.8- 55.4---
2024-07-20 09:02 am E 3 6------ 55.6- 55.2---
2024-07-20 08:52 am E 3 5------ 55.8- 55.4---
2024-07-20 08:42 amESE 5 7------ 55.8- 55.4---
2024-07-20 08:32 am SE 6 9------ 55.9- 55.4---
2024-07-20 08:22 am SE 7 9------ 56.1- 55.2---
2024-07-20 08:12 amESE 7 10------ 57.0- 55.6---
2024-07-20 08:02 amESE 9 14------ 59.2- 56.8---
2024-07-20 07:52 am E 8 11------ 59.4- 57.0---
2024-07-20 07:42 amENE 7 11------ 59.4- 57.0---
2024-07-20 07:32 amENE 8 13------ 59.2- 56.8---
2024-07-20 07:22 amENE 8 12------ 59.4- 57.0---
2024-07-20 07:12 amENE 9 14------ 59.2- 56.8---
2024-07-20 07:02 amENE 9 13------ 59.2- 56.8---
2024-07-20 06:52 amENE 8 13------ 59.4- 57.0---
2024-07-20 06:42 amENE 9 14------ 59.4- 57.0---
2024-07-20 06:32 amENE 10 14------ 59.4- 57.0---
2024-07-20 06:22 amENE 9 15------ 59.0- 57.0---
2024-07-20 06:12 amENE 8 13------ 59.0- 57.0---
2024-07-20 06:02 amENE 8 12------ 58.8- 56.8---
2024-07-20 05:52 amENE 9 14------ 59.0- 57.0---
2024-07-20 05:42 amENE 9 15------ 58.8- 57.0---
2024-07-20 05:32 amENE 8 14------ 58.8- 57.0---
2024-07-20 05:22 amENE 8 13------ 58.8- 57.0---
2024-07-20 05:12 amENE 8 14------ 58.6- 56.8---
2024-07-20 05:02 amENE 8 15------ 58.8- 57.0---
2024-07-20 04:52 amENE 9 16------ 58.8- 56.8---
2024-07-20 04:42 amENE 9 14------ 58.8- 56.8---
2024-07-20 04:32 amENE 9 17------ 58.8- 57.0---
2024-07-20 04:22 amENE 9 16------ 58.6- 56.8---
2024-07-20 04:12 amENE 9 15------ 58.6- 56.8---
2024-07-20 04:02 amENE 9 16------ 58.5- 56.7---
2024-07-20 03:52 amENE 8 15------ 58.3- 56.8---
2024-07-20 03:42 amENE 9 15------ 58.3- 56.8---
2024-07-20 03:32 amENE 10 17------ 58.3- 56.8---
2024-07-20 03:22 amENE 8 16------ 58.1- 56.7---
2024-07-20 03:12 amENE 8 15------ 58.1- 56.7---
2024-07-20 03:02 amENE 8 18------ 58.1- 56.7---
2024-07-20 02:52 amENE 9 18------ 58.3- 56.8---